Terre Rouge Seaplane Base

GF-0014 · Guayana Francesa, French Guiana

METAR pasados GF-0014 · Terre Rouge Seaplane Base

A continuación puedes ver los METAR de los últimos días. Selecciona un año para ver los METAR más antiguos, desde el año 2007 en adelante.

25 de junio de 2024

Hora Código Tiempo Temp. Visibilidad Cielo nuboso Viento METAR/SPECI
16:00
M
27 °C 8 km 2.000 ft 090° 090° 3 kt METAR SMJP 251900Z 09003KT 8000 -TSRA FEW008 SCT012CB BKN020 27/25 Q1011 NOSIG
15:17
V
28 °C 10 km+ - 120° 120° 3 kt SPECI SMJP 251817Z 12003KT 9999 -TSRA SCT006 FEW012CB SCT020 28/24 Q1011 TEMPO 3000 TSRA
15:00
M
28 °C 7 km - 130° 130° 8 kt METAR SMJP 251800Z 13008KT 7000 -SHRA SCT006 FEW012CB SCT018 28/24 Q1012 NOSIG
14:00
V
30 °C 10 km+ - 140° 140° 6 kt METAR SMJP 251700Z 14006KT 9999 VCSH FEW012CB SCT015 30/22 Q1012 NOSIG
13:00
V
30 °C 10 km+ - 140° 140° 5 kt METAR SMJP 251600Z 14005KT 9999 -SHRA SCT012 FEW015CB 30/25 Q1013 NOSIG
12:00
V
30 °C 10 km+ - 140° 140° 4 kt METAR SMJP 251500Z 14004KT 9999 VCSH SCT015 FEW018CB 30/24 Q1014 NOSIG
11:00
V
30 °C 10 km+ - 120° 120° 5 kt METAR SMJP 251400Z 12005KT 9999 SCT015 FEW018CB 30/24 Q1014 NOSIG
10:00
V
28 °C 10 km+ - 090° 090° 3 kt METAR SMJP 251300Z 09003KT 9999 SCT008 28/25 Q1014 NOSIG
09:00
V
26 °C 10 km+ - 080° 080° 1 kt METAR SMJP 251200Z 08001KT 9999 FEW005 FEW015CB 26/24 Q1014 NOSIG
08:00
V
24 °C 10 km+ - 240° 240° 4 kt METAR SMJP 251100Z 24004KT 9999 FEW008 FEW015CB SCT020 24/23 Q1014 NOSIG
07:00
V
24 °C 10 km+ - 080° 080° 2 kt METAR SMJP 251000Z 08002KT 9999 FEW005 FEW015CB SCT020 24/23 Q1013 NOSIG
06:00
V
24 °C 10 km+ - 360° 360° 0 kt METAR SMJP 250900Z 00000KT 9999 FEW005 FEW015CB SCT020 24/23 Q1012 NOSIG
05:00
V
24 °C 10 km+ - 360° 360° 0 kt METAR SMJP 250800Z 00000KT 9999 FEW005 SCT020 24/24 Q1012 NOSIG
04:00
V
24 °C 10 km+ - Var Var 1 kt METAR SMJP 250700Z VRB01KT 9999 FEW005 SCT020 24/23 Q1012 NOSIG
03:00
V
24 °C 10 km+ - 100° 100° 2 kt METAR SMJP 250600Z 10002KT 9999 FEW005 SCT020 24/23 Q1013 NOSIG

24 de junio de 2024

Hora Código Tiempo Temp. Visibilidad Cielo nuboso Viento METAR/SPECI
18:00
V
30 °C 10 km+ - 090° 090° 4 kt METAR SMJP 242100Z 09004KT 9999 VCSH SCT008 FEW015CB SCT020 30/25 Q1010 NOSIG
17:00
V
30 °C 10 km+ - 070° 070° 4 kt METAR SMJP 242000Z 07004KT 9999 VCSH SCT008 FEW015CB SCT020 30/25 Q1010 NOSIG
16:00
V
31 °C 10 km+ - 180° 180° 2 kt METAR SMJP 241900Z 18002KT 9999 -SHRA SCT010 FEW015CB SCT025 31/25 Q1010 NOSIG
15:00
V
29 °C 9 km - 020° 020° 10 kt METAR SMJP 241800Z 02010KT 9000 -SHRA FEW006 FEW015CB SCT018 29/24 Q1011 NOSIG
14:00
V
32 °C 10 km+ - 020° 020° 7 kt METAR SMJP 241700Z 02007KT 9999 SCT015 FEW018CB 32/25 Q1012 NOSIG
13:00
V
32 °C 10 km+ - 090° 090° 4 kt METAR SMJP 241600Z 09004KT 9999 SCT012 FEW015CB 32/24 Q1013 NOSIG
12:00
V
30 °C 10 km+ - 090° 090° 7 kt METAR SMJP 241500Z 09007KT 9999 SCT012 SCT020 30/25 Q1013 NOSIG
11:00
V
29 °C 10 km+ - 090° 090° 3 kt METAR SMJP 241400Z 09003KT 9999 SCT010 29/25 Q1013 NOSIG
10:00
V
27 °C 10 km+ - 360° 360° 0 kt METAR SMJP 241300Z 00000KT 9999 SCT008 SCT020 27/24 Q1013 NOSIG
09:00
V
26 °C 10 km+ - 060° 060° 3 kt METAR SMJP 241200Z 06003KT 9999 SCT006 SCT020 26/25 Q1013 NOSIG
08:00
V
24 °C 10 km+ - 080° 080° 4 kt METAR SMJP 241100Z 08004KT 9999 FEW008 SCT020 24/24 Q1012 NOSIG
07:00
V
24 °C 10 km+ - 090° 090° 4 kt METAR SMJP 241000Z 09004KT 9999 FEW008 SCT020 24/24 Q1012 NOSIG
06:00
V
24 °C 8 km - 360° 360° 0 kt METAR SMJP 240900Z 00000KT 8000 FEW005 SCT020 24/23 Q1010 NOSIG
05:00
V
24 °C 10 km+ - 080° 080° 4 kt METAR SMJP 240800Z 08004KT 9999 FEW005 SCT020 24/23 Q1011 NOSIG
02:00
V
24 °C 10 km+ - 080° 080° 6 kt METAR SMJP 240500Z 08006KT 9999 FEW008 FEW015CB SCT020 24/23 Q1012 NOSIG
01:00
V
24 °C 10 km+ - 090° 090° 6 kt METAR SMJP 240400Z 09006KT 9999 FEW008 FEW015CB SCT020 24/23 Q1013 NOSIG
00:00
M
24 °C 10 km+ 2.000 ft 040° 040° 4 kt METAR SMJP 240300Z 04004KT 9999 -SHRA SCT008 FEW015CB BKN020 24/24 Q1013 NOSIG

23 de junio de 2024

Hora Código Tiempo Temp. Visibilidad Cielo nuboso Viento METAR/SPECI
23:00
M
24 °C 8 km 2.000 ft 080° 080° 6 kt METAR SMJP 240200Z 08006KT 8000 -SHRA SCT008 SCT015CB BKN020 24/24 Q1013 RETS NOSIG
22:00
I
24 °C 3 km 2.000 ft 060° 060° 3 kt METAR SMJP 240100Z 06003KT 3000 TSRA SCT008 SCT012CB BKN020 24/24 Q1013 NOSIG
21:37
I
25 °C 1,5 km 2.000 ft 070° 070° 6 kt METAR SMJP 240037Z 07006KT 1500 +TSRA SCT008 SCT012CB BKN020 25/24 Q1013 BECMG AT0055 3000 TSRA
21:00
I
25 °C 3 km 2.000 ft 080° 080° 5 kt METAR SMJP 240000Z 08005KT 3000 TSRA SCT008 SCT012CB BKN020 25/24 Q1013 BECMG AT0020 9999 NSW
20:24
I
25 °C 3 km 2.000 ft 050° 050° 15 kt METAR SMJP 232324Z 05015KT 3000 TSRA SCT008 SCT012CB BKN020 25/24 Q1012 BECMG AT2350 8000 -TSRA
20:00
V
25 °C 8 km - 080° 080° 3 kt METAR SMJP 232300Z 08003KT 8000 -SHRA SCT008 FEW012CB SCT018 25/25 Q1012 RETS NOSIG
19:00
V
26 °C 10 km+ - 060° 060° 4 kt METAR SMJP 232200Z 06004KT 9999 TS SCT008 FEW012CB SCT018 26/25 Q1011 NOSIG
18:00
V
26 °C 10 km+ - 180° 180° 2 kt METAR SMJP 232100Z 18002KT 9999 TS VCSH SCT008 FEW012CB 26/25 Q1010 NOSIG
17:00
V
26 °C 10 km+ - 050° 050° 9 kt METAR SMJP 232000Z 05009KT 9999 TS SCT008 FEW012CB SCT020 26/25 Q1010 RESHRA NOSIG
16:25
M
27 °C 6 km - 120° 120° 3 kt METAR SMJP 231925Z 12003KT 6000 -TSRA SCT007 FEW012CB SCT015 27/25 Q1010 RESHRA BECMG AT1950 9999 NSW
16:11
L
27 °C 1 km - 050° 050° 8 kt METAR SMJP 231911Z 05008KT 1000 +TSRA SCT007 FEW012CB SCT015 27/25 Q1010 NOSIG
16:00
V
28 °C 8 km - 030° 030° 8 kt METAR SMJP 231900Z 03008KT 8000 -TSRA SCT006 FEW012CB SCT015 28/26 Q1010 TEMPO 3000 TSRA
15:00
V
27 °C 10 km+ - 180° 180° 9 kt METAR SMJP 231800Z 18009KT 9999 -TSRA SCT008 FEW012CB SCT015 27/24 Q1010 NOSIG
14:00
V
33 °C 10 km+ - 040° 040° 4 kt METAR SMJP 231700Z 04004KT 9999 -TSRA SCT008 FEW015CB SCT018 33/23 Q1011 NOSIG
13:00
V
32 °C 10 km+ - 160° 160° 5 kt METAR SMJP 231600Z 16005KT 9999 VCSH SCT010 FEW015CB SCT018 32/23 Q1012 NOSIG
12:00
V
31 °C 10 km+ - 140° 140° 5 kt METAR SMJP 231500Z 14005KT 9999 FEW010 FEW015CB SCT018 31/24 Q1013 NOSIG
11:00
V
30 °C 10 km+ - 090° 090° 5 kt METAR SMJP 231400Z 09005KT 9999 FEW008 FEW015CB SCT018 30/24 Q1013 NOSIG
10:00
V
29 °C 10 km+ - 110° 110° 4 kt METAR SMJP 231300Z 11004KT 9999 FEW005 FEW012CB SCT020 29/25 Q1014 NOSIG
09:00
V
26 °C 10 km+ - 040° 040° 3 kt METAR SMJP 231200Z 04003KT 9999 SCT005 FEW010CB SCT018 26/25 Q1013 NOSIG
08:00
V
25 °C 10 km+ - 360° 360° 0 kt METAR SMJP 231100Z 00000KT 9999 SCT006 SCT020 25/25 Q1012 NOSIG
07:00
I
24 °C 3 km - 200° 200° 1 kt METAR SMJP 231000Z 20001KT 3000 BR SCT001 SCT020 24/24 Q1012 BECMG FM1115 8000 NSW
06:00
V
24 °C 8 km - 360° 360° 0 kt METAR SMJP 230900Z 00000KT 8000 FEW005 FEW015CB SCT020 24/24 Q1011 NOSIG
05:00
V
24 °C 10 km+ - 360° 360° 0 kt METAR SMJP 230800Z 00000KT 9999 FEW005 FEW015CB SCT020 24/24 Q1011 NOSIG
04:00
V
25 °C 10 km+ - 360° 360° 0 kt METAR SMJP 230700Z 00000KT 9999 FEW005 SCT020 25/24 Q1011 NOSIG
03:00
M
25 °C 10 km+ 2.000 ft 080° 080° 1 kt METAR SMJP 230600Z 08001KT 9999 FEW005 BKN020 25/24 Q1012 NOSIG
Cambiar esta información